Time;durP1;ratioP1;P1;durP2;ratioP2;P2;SDS_P1;SDS_P2;PMS_P1;PMS_P2;Temp;Humidity;BMP_temperature;BMP_pressure;BME280_temperature;BME280_humidity;BME280_pressure;Samples;Min_cycle;Max_cycle;Signal;HPM_P1;HPM_P2
2022/06/29 00:00:56;;;;;;;7.30;1.73;;;18.30;99.90;;;;;;5029220;28;20041;-84
2022/06/29 00:03:22;;;;;;;7.72;2.00;;;18.20;99.90;;;;;;4997007;28;20492;-84
2022/06/29 00:05:47;;;;;;;6.72;1.95;;;18.20;99.90;;;;;;5013192;28;20041;-84
2022/06/29 00:08:14;;;;;;;6.53;1.83;;;18.20;99.90;;;;;;5030553;28;20029;-84
2022/06/29 00:10:40;;;;;;;7.47;2.38;;;18.20;99.90;;;;;;5028316;28;20038;-83
2022/06/29 00:13:06;;;;;;;8.07;2.00;;;18.20;99.90;;;;;;5012452;28;20098;-84
2022/06/29 00:15:32;;;;;;;6.78;1.75;;;18.10;99.90;;;;;;4996314;28;20042;-84
2022/06/29 00:17:58;;;;;;;6.93;1.90;;;18.10;99.90;;;;;;5011078;28;20048;-84
2022/06/29 00:20:24;;;;;;;6.47;1.98;;;18.00;99.90;;;;;;5028149;28;20654;-84
2022/06/29 00:22:50;;;;;;;8.65;1.88;;;18.00;99.90;;;;;;4996105;28;20063;-84
2022/06/29 00:25:16;;;;;;;6.53;1.85;;;18.00;99.90;;;;;;4997038;28;20045;-84
2022/06/29 00:27:42;;;;;;;8.50;1.90;;;18.00;99.90;;;;;;5013432;28;20034;-84
2022/06/29 00:30:09;;;;;;;4.78;1.73;;;18.00;99.90;;;;;;5011826;28;20033;-84
2022/06/29 00:32:35;;;;;;;7.97;1.90;;;17.90;99.90;;;;;;5012713;28;20499;-84
2022/06/29 00:35:01;;;;;;;6.97;1.90;;;17.90;99.90;;;;;;5013243;28;20048;-84
2022/06/29 00:37:27;;;;;;;7.05;2.08;;;17.90;99.90;;;;;;5012886;28;20038;-84
2022/06/29 00:39:53;;;;;;;6.72;1.90;;;17.90;99.90;;;;;;5012361;28;20757;-84
2022/06/29 00:42:18;;;;;;;7.72;2.15;;;17.90;99.90;;;;;;5028413;28;20033;-84
2022/06/29 00:44:44;;;;;;;7.65;2.42;;;17.80;99.90;;;;;;5013051;28;20126;-84
2022/06/29 00:47:09;;;;;;;5.45;2.00;;;17.80;99.90;;;;;;5029605;28;20044;-84
2022/06/29 00:49:35;;;;;;;8.13;2.28;;;17.80;99.90;;;;;;4995542;28;20491;-84
2022/06/29 00:52:12;;;;;;;6.90;2.25;;;17.70;99.90;;;;;;5012686;28;20053;-84
2022/06/29 00:54:54;;;;;;;6.18;2.10;;;17.70;99.90;;;;;;4996629;28;20079;-84
2022/06/29 00:57:26;;;;;;;8.43;2.35;;;17.70;99.90;;;;;;5012494;28;20120;-83
2022/06/29 00:59:54;;;;;;;7.75;2.53;;;17.70;99.90;;;;;;5028419;28;20041;-84
2022/06/29 01:02:25;;;;;;;8.05;2.42;;;17.60;99.90;;;;;;4996110;28;20034;-84
2022/06/29 01:04:52;;;;;;;8.50;2.33;;;17.70;99.90;;;;;;4996618;28;20107;-84
2022/06/29 01:07:26;;;;;;;6.38;2.22;;;17.60;99.90;;;;;;5012673;28;20045;-84
2022/06/29 01:09:52;;;;;;;6.75;2.47;;;17.60;99.90;;;;;;5028369;28;20116;-84
2022/06/29 01:12:18;;;;;;;6.55;2.35;;;17.60;99.90;;;;;;5028028;28;20037;-83
2022/06/29 01:14:46;;;;;;;6.35;2.25;;;17.60;99.90;;;;;;4996792;28;20107;-83
2022/06/29 01:17:12;;;;;;;6.43;2.20;;;17.60;99.90;;;;;;4996682;28;20099;-84
2022/06/29 01:19:39;;;;;;;6.80;2.42;;;17.50;99.90;;;;;;5011303;28;20045;-83
2022/06/29 01:22:16;;;;;;;8.73;2.60;;;17.50;99.90;;;;;;4996104;28;20055;-84
2022/06/29 01:24:44;;;;;;;7.78;2.40;;;17.60;99.90;;;;;;5012418;28;20403;-83
2022/06/29 01:27:11;;;;;;;6.28;2.25;;;17.50;99.90;;;;;;4996446;28;20104;-83
2022/06/29 01:29:37;;;;;;;7.28;2.22;;;17.50;99.90;;;;;;4995473;28;20052;-84
2022/06/29 01:32:03;;;;;;;7.25;2.50;;;17.50;99.90;;;;;;5011814;28;20037;-83
2022/06/29 01:34:30;;;;;;;8.05;2.50;;;17.50;99.90;;;;;;4996320;28;20045;-83
2022/06/29 01:36:57;;;;;;;6.55;2.60;;;17.40;99.90;;;;;;5012247;28;20037;-84
2022/06/29 01:39:23;;;;;;;6.80;2.65;;;17.40;99.90;;;;;;5011696;28;20046;-84
2022/06/29 01:41:49;;;;;;;7.20;2.63;;;17.30;99.90;;;;;;5011526;28;20044;-84
2022/06/29 01:44:14;;;;;;;7.57;2.58;;;17.30;99.90;;;;;;5012487;28;20049;-84
2022/06/29 01:46:40;;;;;;;6.78;2.50;;;17.20;99.90;;;;;;5012941;28;20037;-84
2022/06/29 01:49:06;;;;;;;6.72;2.45;;;17.20;99.90;;;;;;5011940;28;20042;-84
2022/06/29 01:51:32;;;;;;;8.43;2.60;;;17.20;99.90;;;;;;5011045;28;20085;-84
2022/06/29 01:53:57;;;;;;;6.50;2.38;;;17.10;99.90;;;;;;5012249;28;20041;-84
2022/06/29 01:56:23;;;;;;;5.68;2.20;;;17.10;99.90;;;;;;5032250;28;20049;-84
2022/06/29 01:58:49;;;;;;;5.65;2.40;;;17.10;99.90;;;;;;5015816;28;20045;-84
2022/06/29 02:01:14;;;;;;;6.65;2.33;;;17.00;99.90;;;;;;4998519;28;20045;-84
2022/06/29 02:03:40;;;;;;;7.53;2.47;;;17.00;99.90;;;;;;5031756;28;20037;-84
2022/06/29 02:06:06;;;;;;;8.23;2.58;;;17.00;99.90;;;;;;5015622;28;20517;-84
2022/06/29 02:08:32;;;;;;;7.53;2.90;;;16.90;99.90;;;;;;4999954;28;20038;-83
2022/06/29 02:10:58;;;;;;;7.70;2.70;;;16.90;99.90;;;;;;5013867;28;20045;-84
2022/06/29 02:13:24;;;;;;;7.25;2.70;;;16.90;99.90;;;;;;5031875;28;20511;-84
2022/06/29 02:15:50;;;;;;;9.05;2.67;;;16.90;99.90;;;;;;5031979;28;20045;-84
2022/06/29 02:18:15;;;;;;;6.75;2.75;;;16.80;99.90;;;;;;4999221;28;20092;-83
2022/06/29 02:20:41;;;;;;;9.05;3.30;;;16.80;99.90;;;;;;5014330;28;20128;-84
2022/06/29 02:23:06;;;;;;;7.30;2.97;;;16.80;99.90;;;;;;5015108;28;20509;-84
2022/06/29 02:25:32;;;;;;;6.25;2.45;;;16.80;99.90;;;;;;5015025;28;20037;-84
2022/06/29 02:27:57;;;;;;;6.50;2.60;;;16.70;99.90;;;;;;5015623;28;20445;-84
2022/06/29 02:34:43;;;;;;;7.78;3.00;;;16.70;99.90;;;;;;4998491;28;20030;-83
2022/06/29 02:35:53;;;;;;;7.93;2.72;;;16.70;99.90;;;;;;5032320;28;20069;-84
2022/06/29 02:38:18;;;;;;;6.68;2.75;;;16.70;99.90;;;;;;5015012;28;20069;-84
2022/06/29 02:40:44;;;;;;;7.28;2.72;;;16.70;99.90;;;;;;5030348;28;20041;-84
2022/06/29 02:43:10;;;;;;;8.45;2.90;;;16.70;99.90;;;;;;5014825;28;20049;-84
2022/06/29 02:45:36;;;;;;;6.95;2.95;;;16.70;99.90;;;;;;4998301;28;20057;-84
2022/06/29 02:48:01;;;;;;;7.45;3.08;;;16.70;99.90;;;;;;5031707;28;20119;-84
2022/06/29 02:50:27;;;;;;;7.38;3.17;;;16.70;99.90;;;;;;5014041;28;20034;-84
2022/06/29 02:52:53;;;;;;;7.35;3.08;;;16.70;99.90;;;;;;4998051;28;20517;-84
2022/06/29 02:55:18;;;;;;;7.55;2.90;;;16.60;99.90;;;;;;5015228;28;20045;-84
2022/06/29 02:57:44;;;;;;;8.25;3.33;;;16.60;99.90;;;;;;4998279;28;20524;-84
2022/06/29 03:00:11;;;;;;;7.53;3.03;;;16.60;99.90;;;;;;5014020;28;20037;-84
2022/06/29 03:02:37;;;;;;;6.93;3.17;;;16.60;99.90;;;;;;4997493;28;20050;-84
2022/06/29 03:05:02;;;;;;;8.45;3.00;;;16.60;99.90;;;;;;5031166;28;20033;-84
2022/06/29 03:07:28;;;;;;;6.93;3.03;;;16.60;99.90;;;;;;5030668;28;20120;-84
2022/06/29 03:09:53;;;;;;;9.73;3.42;;;16.50;99.90;;;;;;5014483;28;20037;-83
2022/06/29 03:12:19;;;;;;;8.65;3.22;;;16.50;99.90;;;;;;5013445;28;20147;-84
2022/06/29 03:14:44;;;;;;;7.68;3.13;;;16.50;99.90;;;;;;5027318;28;20044;-84
2022/06/29 03:17:10;;;;;;;7.90;3.65;;;16.40;99.90;;;;;;5011208;28;20492;-84
2022/06/29 03:19:35;;;;;;;7.93;3.22;;;16.40;99.90;;;;;;5014000;28;20037;-83
2022/06/29 03:22:01;;;;;;;8.57;3.47;;;16.40;99.90;;;;;;5030087;28;20529;-83
2022/06/29 03:24:27;;;;;;;8.18;3.80;;;16.40;99.90;;;;;;5014096;28;20045;-84
2022/06/29 03:26:53;;;;;;;7.32;2.88;;;16.40;99.90;;;;;;4997568;28;20056;-83
2022/06/29 03:29:18;;;;;;;7.50;3.50;;;16.40;99.90;;;;;;5014439;28;20431;-84
2022/06/29 03:31:44;;;;;;;6.90;3.03;;;16.30;99.90;;;;;;4996336;28;20498;-84
2022/06/29 03:34:09;;;;;;;8.07;3.67;;;16.30;99.90;;;;;;5013850;28;20083;-84
2022/06/29 03:36:35;;;;;;;8.45;3.70;;;16.30;99.90;;;;;;5031317;28;20044;-84
2022/06/29 03:39:01;;;;;;;8.38;3.67;;;16.30;99.90;;;;;;5013322;28;20044;-84
2022/06/29 03:41:26;;;;;;;8.63;3.88;;;16.30;99.90;;;;;;5013279;28;20041;-84
2022/06/29 03:43:52;;;;;;;7.90;3.58;;;16.30;99.90;;;;;;4996143;28;20416;-84
2022/06/29 03:46:17;;;;;;;8.65;3.60;;;16.30;99.90;;;;;;5030143;28;20095;-84
2022/06/29 03:48:43;;;;;;;7.30;3.28;;;16.30;99.90;;;;;;4997476;28;20044;-84
2022/06/29 03:51:08;;;;;;;8.35;3.58;;;16.20;99.90;;;;;;5011911;28;20041;-84
2022/06/29 03:53:34;;;;;;;8.75;3.60;;;16.20;99.90;;;;;;5012725;28;20049;-84
2022/06/29 03:56:00;;;;;;;8.35;3.72;;;16.30;99.90;;;;;;5014165;28;20060;-84
2022/06/29 03:58:26;;;;;;;7.35;3.92;;;16.20;99.90;;;;;;4997659;28;20045;-83
2022/06/29 04:00:52;;;;;;;9.13;3.95;;;16.20;99.90;;;;;;4995988;28;20431;-84
2022/06/29 04:03:17;;;;;;;7.85;4.20;;;16.30;99.90;;;;;;5012718;28;20041;-84
2022/06/29 04:05:43;;;;;;;8.55;4.05;;;16.30;99.90;;;;;;5013182;28;20033;-84
2022/06/29 04:08:09;;;;;;;8.40;4.00;;;16.20;99.90;;;;;;5030128;28;20039;-84
2022/06/29 04:10:34;;;;;;;8.73;4.13;;;16.20;99.90;;;;;;5012784;28;20148;-84
2022/06/29 04:13:00;;;;;;;7.88;3.80;;;16.20;99.90;;;;;;5012282;28;20073;-83
2022/06/29 04:15:25;;;;;;;7.80;3.90;;;16.20;99.90;;;;;;5013162;28;20068;-83
2022/06/29 04:17:51;;;;;;;8.75;4.07;;;16.20;99.90;;;;;;5013214;28;20056;-83
2022/06/29 04:23:02;;;;;;;8.30;4.30;;;16.20;99.90;;;;;;5028081;28;20499;-84
2022/06/29 04:25:28;;;;;;;8.18;4.20;;;16.20;99.90;;;;;;4997034;28;20062;-83
2022/06/29 04:27:54;;;;;;;7.50;3.88;;;16.20;99.90;;;;;;4996637;28;20084;-83
2022/06/29 04:30:20;;;;;;;8.10;4.20;;;16.20;99.90;;;;;;5012686;28;20487;-84
2022/06/29 04:32:45;;;;;;;8.18;4.13;;;16.20;99.90;;;;;;5012114;28;20144;-84
2022/06/29 04:35:11;;;;;;;8.70;4.30;;;16.20;99.90;;;;;;5012822;28;20041;-84
2022/06/29 04:37:37;;;;;;;8.15;4.07;;;16.20;99.90;;;;;;5013482;28;20064;-84
2022/06/29 04:40:03;;;;;;;8.10;4.00;;;16.20;99.90;;;;;;5012436;28;20124;-84
2022/06/29 04:42:29;;;;;;;9.10;4.60;;;16.30;99.90;;;;;;5011930;28;20087;-84
2022/06/29 04:44:55;;;;;;;6.90;3.88;;;16.40;99.90;;;;;;5012614;28;20038;-84
2022/06/29 04:47:20;;;;;;;9.82;4.22;;;16.40;99.90;;;;;;5029917;28;20103;-84
2022/06/29 04:49:46;;;;;;;7.50;4.50;;;16.40;99.90;;;;;;5013379;28;20560;-84
2022/06/29 04:52:12;;;;;;;8.13;4.40;;;16.50;99.90;;;;;;5011834;28;20483;-84
2022/06/29 04:54:38;;;;;;;8.55;4.88;;;16.50;99.90;;;;;;5012306;28;20179;-84
2022/06/29 04:57:04;;;;;;;7.63;4.55;;;16.50;99.90;;;;;;5013268;28;20045;-84
2022/06/29 04:59:29;;;;;;;8.50;4.47;;;16.60;99.90;;;;;;5012327;28;20406;-84
2022/06/29 05:01:55;;;;;;;9.48;4.47;;;16.60;99.90;;;;;;5012484;28;20514;-84
2022/06/29 05:04:21;;;;;;;8.77;4.68;;;16.60;99.90;;;;;;5012473;28;20041;-84
2022/06/29 05:06:46;;;;;;;8.48;4.63;;;16.60;99.90;;;;;;5012706;28;20041;-84
2022/06/29 05:09:12;;;;;;;8.07;4.28;;;16.70;99.90;;;;;;5012375;28;20060;-84
2022/06/29 05:11:37;;;;;;;9.55;4.55;;;16.80;99.90;;;;;;5011390;28;20048;-83
2022/06/29 05:14:03;;;;;;;9.45;4.85;;;16.80;99.90;;;;;;4995104;28;20037;-84
2022/06/29 05:16:29;;;;;;;7.78;4.63;;;16.80;99.90;;;;;;5012164;28;20046;-84
2022/06/29 05:18:54;;;;;;;8.25;4.50;;;16.90;99.90;;;;;;5012695;28;20056;-84
2022/06/29 05:21:20;;;;;;;9.77;5.00;;;16.90;99.90;;;;;;4995959;28;20045;-84
2022/06/29 05:23:46;;;;;;;10.00;4.78;;;16.90;99.90;;;;;;5011183;28;20132;-84
2022/06/29 05:26:12;;;;;;;8.32;4.90;;;16.90;99.90;;;;;;4996435;28;20049;-83
2022/06/29 05:28:38;;;;;;;7.68;4.70;;;17.00;99.90;;;;;;4996379;28;20037;-84
2022/06/29 05:31:04;;;;;;;9.70;4.75;;;17.10;99.90;;;;;;5031592;28;20410;-84
2022/06/29 05:33:36;;;;;;;8.25;5.40;;;17.20;99.90;;;;;;5015596;28;20049;-84
2022/06/29 05:36:03;;;;;;;8.40;4.75;;;17.20;99.90;;;;;;5016236;28;20154;-84
2022/06/29 05:38:31;;;;;;;8.23;5.15;;;17.20;99.90;;;;;;5016397;28;20044;-84
2022/06/29 05:40:57;;;;;;;9.07;5.68;;;17.30;99.90;;;;;;4998740;28;20053;-84
2022/06/29 05:43:22;;;;;;;9.05;4.95;;;17.40;99.90;;;;;;5032382;28;20419;-84
2022/06/29 05:45:48;;;;;;;9.60;5.30;;;17.50;99.90;;;;;;5016657;28;20467;-84
2022/06/29 05:48:13;;;;;;;9.50;5.55;;;17.50;99.90;;;;;;5032449;28;20041;-84
2022/06/29 05:50:39;;;;;;;8.25;5.30;;;17.60;99.90;;;;;;4999531;28;20048;-84
2022/06/29 05:53:05;;;;;;;8.07;5.22;;;17.60;99.90;;;;;;4995175;28;20415;-84
2022/06/29 05:55:31;;;;;;;9.40;5.25;;;17.70;99.90;;;;;;5008764;28;20569;-84
2022/06/29 05:57:57;;;;;;;10.57;5.47;;;17.70;99.90;;;;;;4999216;28;20048;-84
2022/06/29 06:00:23;;;;;;;9.05;5.15;;;17.80;99.90;;;;;;5010781;28;20042;-84
2022/06/29 06:02:49;;;;;;;9.88;5.63;;;17.80;99.90;;;;;;5015378;28;20045;-84
2022/06/29 06:05:14;;;;;;;8.98;5.28;;;17.90;99.90;;;;;;5031504;28;20095;-84
2022/06/29 06:07:40;;;;;;;8.88;4.97;;;18.00;99.90;;;;;;5015450;28;20396;-84
2022/06/29 06:10:06;;;;;;;9.40;5.53;;;18.10;99.90;;;;;;5016031;28;20080;-84
2022/06/29 06:12:32;;;;;;;8.85;4.80;;;18.10;99.90;;;;;;5014910;28;20025;-84
2022/06/29 06:14:59;;;;;;;8.10;4.78;;;18.20;99.90;;;;;;5015263;28;20048;-84
2022/06/29 06:17:28;;;;;;;8.55;4.68;;;18.30;99.90;;;;;;4999802;28;20048;-84
2022/06/29 06:19:58;;;;;;;10.13;5.25;;;18.40;99.90;;;;;;4998790;28;20033;-84
2022/06/29 06:22:24;;;;;;;8.45;4.50;;;18.40;99.90;;;;;;5014801;28;20176;-85
2022/06/29 06:24:49;;;;;;;9.80;5.03;;;18.50;99.90;;;;;;5014462;28;20124;-84
2022/06/29 06:27:15;;;;;;;9.15;4.82;;;18.60;99.90;;;;;;5015867;28;20041;-84
2022/06/29 06:29:41;;;;;;;9.63;4.63;;;18.70;99.90;;;;;;5015259;28;20041;-85
2022/06/29 06:32:07;;;;;;;9.00;4.45;;;18.80;99.90;;;;;;5014685;28;20568;-84
2022/06/29 06:34:32;;;;;;;8.43;4.60;;;18.80;99.90;;;;;;5014245;28;20566;-84
2022/06/29 06:36:59;;;;;;;8.18;4.28;;;18.90;99.90;;;;;;5031036;28;20052;-85
2022/06/29 06:39:25;;;;;;;13.70;4.70;;;19.00;99.90;;;;;;5014846;28;20406;-84
2022/06/29 06:41:51;;;;;;;8.07;4.20;;;19.10;99.90;;;;;;5031642;28;20096;-85
2022/06/29 06:44:17;;;;;;;9.18;4.05;;;19.20;99.90;;;;;;5014092;28;20069;-85
2022/06/29 06:46:46;;;;;;;8.38;4.07;;;19.30;99.90;;;;;;5014825;28;20037;-85
2022/06/29 06:49:12;;;;;;;8.60;4.10;;;19.30;99.90;;;;;;5013947;28;20041;-85
2022/06/29 06:51:38;;;;;;;8.43;4.30;;;19.40;99.90;;;;;;5031062;28;20391;-84
2022/06/29 06:54:03;;;;;;;9.80;4.57;;;19.50;99.90;;;;;;5013568;28;20045;-84
2022/06/29 06:56:29;;;;;;;8.63;4.40;;;19.60;99.90;;;;;;5015011;28;20124;-84
2022/06/29 06:58:55;;;;;;;7.57;4.20;;;19.70;99.90;;;;;;5032397;28;20048;-85
2022/06/29 07:01:20;;;;;;;8.50;4.43;;;19.70;99.90;;;;;;5031026;28;20048;-85
2022/06/29 07:03:46;;;;;;;8.85;3.75;;;19.80;99.90;;;;;;4997566;28;20095;-85
2022/06/29 07:06:12;;;;;;;8.30;4.10;;;19.90;99.90;;;;;;4997633;28;20116;-85
2022/06/29 07:08:39;;;;;;;8.88;3.88;;;20.00;99.90;;;;;;4998557;28;20091;-85
2022/06/29 07:11:06;;;;;;;8.00;3.42;;;20.10;99.90;;;;;;5030930;28;20395;-85
2022/06/29 07:13:33;;;;;;;6.85;3.03;;;20.20;99.90;;;;;;4996881;28;20033;-85
2022/06/29 07:15:59;;;;;;;7.90;3.10;;;20.30;99.90;;;;;;5014486;28;20402;-85
2022/06/29 07:18:25;;;;;;;9.05;2.90;;;20.40;99.90;;;;;;5014312;28;20560;-85
2022/06/29 07:20:51;;;;;;;7.80;2.53;;;20.50;99.90;;;;;;5032081;28;20045;-85
2022/06/29 07:23:17;;;;;;;6.85;2.45;;;20.60;99.90;;;;;;5051489;28;20500;-85
2022/06/29 07:25:42;;;;;;;6.50;2.30;;;20.70;99.90;;;;;;5036611;28;20068;-85
2022/06/29 07:28:08;;;;;;;6.57;2.42;;;20.80;99.90;;;;;;5014432;28;20092;-85
2022/06/29 07:30:34;;;;;;;7.25;2.30;;;20.90;99.90;;;;;;5013828;28;20036;-85
2022/06/29 07:32:59;;;;;;;6.70;2.30;;;20.90;99.90;;;;;;5013764;28;20469;-85
2022/06/29 07:35:26;;;;;;;6.30;2.38;;;21.00;99.90;;;;;;5012664;28;20089;-85
2022/06/29 07:37:52;;;;;;;6.32;2.25;;;21.10;99.90;;;;;;4997779;28;20033;-85
2022/06/29 07:40:18;;;;;;;8.15;2.17;;;21.20;99.90;;;;;;5014566;28;20388;-85
2022/06/29 07:42:43;;;;;;;7.68;2.42;;;21.20;99.90;;;;;;5012652;28;20495;-85
2022/06/29 07:45:10;;;;;;;8.05;2.55;;;21.30;99.90;;;;;;4997126;28;20479;-85
2022/06/29 07:47:35;;;;;;;5.72;2.10;;;21.30;99.90;;;;;;5014056;28;20180;-85
2022/06/29 07:50:01;;;;;;;6.72;2.13;;;21.30;99.90;;;;;;5031119;28;20527;-85
2022/06/29 07:52:27;;;;;;;5.93;2.20;;;21.30;99.90;;;;;;5012587;28;20458;-84
2022/06/29 07:54:53;;;;;;;6.55;2.33;;;21.30;99.90;;;;;;5012372;28;20509;-84
2022/06/29 07:57:19;;;;;;;5.25;2.10;;;21.30;99.90;;;;;;4997303;28;20113;-85
2022/06/29 07:59:48;;;;;;;7.40;2.10;;;21.40;99.90;;;;;;5013724;28;20126;-85
2022/06/29 08:02:13;;;;;;;6.50;2.38;;;21.40;99.90;;;;;;5013736;28;20041;-85
2022/06/29 08:04:39;;;;;;;8.88;2.38;;;21.60;99.90;;;;;;5028641;28;20510;-85
2022/06/29 08:07:04;;;;;;;6.93;2.10;;;21.60;99.90;;;;;;5013844;28;20041;-85
2022/06/29 08:09:31;;;;;;;6.57;2.17;;;21.60;99.90;;;;;;5013884;28;20048;-85
2022/06/29 08:11:57;;;;;;;7.80;2.28;;;21.70;99.90;;;;;;5012787;28;20541;-85
2022/06/29 08:14:22;;;;;;;6.10;2.17;;;21.80;99.90;;;;;;5012917;28;20045;-85
2022/06/29 08:16:48;;;;;;;7.80;2.60;;;21.90;99.90;;;;;;5013702;28;20041;-85
2022/06/29 08:19:13;;;;;;;9.75;2.55;;;22.00;99.90;;;;;;5013014;28;20519;-85
2022/06/29 08:21:39;;;;;;;5.93;2.20;;;22.10;99.90;;;;;;5013465;28;20029;-85
2022/06/29 08:24:05;;;;;;;6.85;2.03;;;22.20;99.90;;;;;;5028895;28;20052;-85
2022/06/29 08:26:30;;;;;;;6.97;2.00;;;22.40;99.90;;;;;;5013173;28;20080;-85
2022/06/29 08:28:56;;;;;;;6.50;2.15;;;22.40;99.90;;;;;;5012984;28;20609;-85
2022/06/29 08:31:22;;;;;;;6.75;2.10;;;22.50;99.90;;;;;;4996605;28;20041;-85
2022/06/29 08:33:47;;;;;;;6.18;2.00;;;22.60;99.70;;;;;;5029029;28;20142;-85
2022/06/29 08:36:13;;;;;;;5.53;1.75;;;22.60;98.00;;;;;;5011945;28;20116;-85
2022/06/29 08:38:39;;;;;;;6.60;1.60;;;22.80;98.80;;;;;;4997333;28;20037;-85
2022/06/29 08:41:05;;;;;;;5.18;1.73;;;22.90;99.10;;;;;;5013600;28;20048;-86
2022/06/29 08:43:32;;;;;;;6.20;2.05;;;23.00;98.70;;;;;;5028196;28;20121;-86
2022/06/29 08:45:58;;;;;;;7.78;2.15;;;23.10;93.40;;;;;;5012820;28;20549;-86
2022/06/29 08:48:24;;;;;;;6.20;1.90;;;23.20;94.70;;;;;;5028850;28;20033;-86
2022/06/29 08:50:52;;;;;;;6.13;1.90;;;23.30;94.40;;;;;;4996170;28;20133;-85
2022/06/29 08:53:18;;;;;;;7.28;2.45;;;23.40;93.80;;;;;;5012934;28;20038;-86
2022/06/29 08:55:46;;;;;;;5.97;1.90;;;23.40;92.70;;;;;;4995410;28;20080;-85
2022/06/29 08:58:21;;;;;;;5.88;1.92;;;23.40;95.80;;;;;;5012515;28;20499;-85
2022/06/29 09:00:49;;;;;;;5.45;2.00;;;23.50;95.50;;;;;;5009848;28;20095;-86
2022/06/29 09:03:15;;;;;;;7.63;2.08;;;23.50;96.70;;;;;;4995448;28;20084;-85
2022/06/29 09:05:47;;;;;;;7.05;2.20;;;23.70;97.20;;;;;;5016060;28;20041;-86
2022/06/29 09:08:12;;;;;;;8.97;3.13;;;23.80;97.50;;;;;;5016631;28;20041;-85
2022/06/29 09:10:38;;;;;;;6.70;2.20;;;23.90;96.70;;;;;;5017216;28;20399;-86
2022/06/29 09:13:05;;;;;;;7.68;2.05;;;24.00;94.40;;;;;;5033799;28;20038;-85
2022/06/29 09:15:36;;;;;;;7.80;2.30;;;24.00;94.70;;;;;;4999600;28;20076;-86
2022/06/29 09:18:03;;;;;;;8.75;2.22;;;24.10;97.20;;;;;;5016399;28;20403;-85
2022/06/29 09:20:39;;;;;;;5.82;1.90;;;24.20;95.10;;;;;;5016537;28;20052;-85
2022/06/29 09:23:08;;;;;;;6.40;2.00;;;24.30;94.60;;;;;;5033684;28;20048;-86
2022/06/29 09:25:39;;;;;;;6.53;2.25;;;24.40;92.60;;;;;;5015725;28;20045;-86
2022/06/29 09:28:24;;;;;;;5.75;1.92;;;24.40;90.60;;;;;;5034093;28;20041;-85
2022/06/29 09:30:54;;;;;;;6.15;1.95;;;24.50;91.70;;;;;;4999540;28;20423;-86
2022/06/29 09:33:24;;;;;;;5.78;1.92;;;24.70;91.40;;;;;;5034143;28;20046;-85
2022/06/29 09:36:10;;;;;;;6.43;2.28;;;24.70;92.50;;;;;;5014735;28;20046;-85
2022/06/29 09:38:36;;;;;;;6.65;1.92;;;24.90;92.90;;;;;;5000117;28;20435;-85
2022/06/29 09:41:13;;;;;;;7.82;2.40;;;25.00;90.90;;;;;;5015540;28;20049;-85
2022/06/29 09:43:41;;;;;;;5.22;1.95;;;25.00;86.20;;;;;;5016015;28;20462;-85
2022/06/29 09:46:09;;;;;;;6.18;2.03;;;25.00;85.30;;;;;;4998935;28;20041;-85
2022/06/29 09:48:36;;;;;;;6.72;2.40;;;25.00;86.40;;;;;;5015740;28;20048;-86
2022/06/29 09:51:30;;;;;;;5.60;2.13;;;25.00;88.40;;;;;;5032445;28;20045;-85
2022/06/29 09:54:10;;;;;;;6.45;2.20;;;25.10;88.70;;;;;;5033096;28;20046;-86
2022/06/29 09:56:45;;;;;;;7.05;2.40;;;25.10;92.30;;;;;;4998601;28;20045;-85
2022/06/29 09:59:13;;;;;;;6.13;2.70;;;25.10;94.70;;;;;;5015704;28;20072;-85
2022/06/29 10:04:26;;;;;;;5.57;2.60;;;25.20;85.80;;;;;;5007566;28;20446;-85
2022/06/29 10:06:53;;;;;;;5.75;2.28;;;25.20;92.40;;;;;;4989312;28;20511;-86
2022/06/29 10:09:19;;;;;;;6.13;2.38;;;25.20;91.50;;;;;;5012069;28;20537;-86
2022/06/29 10:15:16;;;;;;;6.97;2.38;;;25.20;90.00;;;;;;5032475;28;20411;-86
2022/06/29 10:18:09;;;;;;;5.40;2.50;;;25.20;90.70;;;;;;5027868;28;20038;-85
2022/06/29 10:20:42;;;;;;;7.55;2.45;;;25.30;93.60;;;;;;4998773;28;20124;-86
2022/06/29 10:23:08;;;;;;;6.53;2.90;;;25.40;92.70;;;;;;4998416;28;20045;-85
2022/06/29 10:25:35;;;;;;;6.72;2.58;;;25.50;90.90;;;;;;5014626;28;20116;-85
2022/06/29 10:28:10;;;;;;;6.72;2.35;;;25.60;88.70;;;;;;5014480;28;20489;-85
2022/06/29 10:30:37;;;;;;;6.28;2.65;;;25.70;90.30;;;;;;4998451;28;20037;-86
2022/06/29 10:33:35;;;;;;;7.15;2.60;;;25.70;91.00;;;;;;5014674;28;20592;-85
2022/06/29 10:36:05;;;;;;;6.40;2.95;;;25.70;91.60;;;;;;5030466;28;20041;-85
2022/06/29 10:38:35;;;;;;;7.18;2.95;;;25.70;89.70;;;;;;5014796;28;20049;-85
2022/06/29 10:43:07;;;;;;;6.13;2.53;;;25.70;86.20;;;;;;5014532;28;20120;-85
2022/06/29 10:43:56;;;;;;;6.63;2.83;;;25.70;82.50;;;;;;5014651;28;20056;-86
2022/06/29 10:46:22;;;;;;;6.07;2.63;;;25.60;88.40;;;;;;5031055;28;20399;-86
2022/06/29 10:49:25;;;;;;;6.93;2.70;;;25.60;91.20;;;;;;4998423;28;20368;-86
2022/06/29 10:51:51;;;;;;;6.28;2.55;;;25.60;88.50;;;;;;5014754;28;20048;-86
2022/06/29 10:54:26;;;;;;;7.43;2.67;;;25.50;87.40;;;;;;5032837;28;20414;-86
2022/06/29 10:56:53;;;;;;;5.78;2.60;;;25.60;87.80;;;;;;5030202;28;20030;-86
2022/06/29 10:59:31;;;;;;;6.50;2.80;;;25.60;88.30;;;;;;5014214;28;20041;-85
2022/06/29 11:02:10;;;;;;;7.55;2.85;;;25.70;91.90;;;;;;5015452;28;20440;-86
2022/06/29 11:04:36;;;;;;;7.53;2.95;;;25.70;86.80;;;;;;5006894;28;20050;-86
2022/06/29 11:12:49;;;;;;;7.70;3.03;;;25.70;88.40;;;;;;5012730;28;20037;-85
2022/06/29 11:15:41;;;;;;;7.10;3.08;;;25.80;89.50;;;;;;5005895;28;20065;-86
2022/06/29 11:18:12;;;;;;;8.57;3.10;;;25.80;89.90;;;;;;4997489;28;20080;-85
2022/06/29 11:20:38;;;;;;;7.00;3.53;;;25.80;92.60;;;;;;5014173;28;20041;-85
2022/06/29 11:23:15;;;;;;;8.63;3.20;;;25.80;90.60;;;;;;4998193;28;20499;-86
2022/06/29 11:25:47;;;;;;;7.97;3.10;;;25.80;91.50;;;;;;4997206;28;20052;-85
2022/06/29 11:28:16;;;;;;;8.68;3.60;;;25.80;88.10;;;;;;5013714;28;20044;-85
2022/06/29 11:30:41;;;;;;;9.88;3.78;;;25.80;80.80;;;;;;4997629;28;20045;-86
2022/06/29 11:33:12;;;;;;;6.97;3.50;;;25.70;79.40;;;;;;5013574;28;20120;-86
2022/06/29 11:35:39;;;;;;;6.80;3.20;;;25.70;80.00;;;;;;4997389;28;20045;-86
2022/06/29 11:38:07;;;;;;;8.50;3.88;;;25.70;84.80;;;;;;5029710;28;20124;-86
2022/06/29 11:40:43;;;;;;;8.50;3.53;;;25.70;79.20;;;;;;4997660;28;20037;-86
2022/06/29 11:43:14;;;;;;;7.07;3.40;;;25.70;83.10;;;;;;5013951;28;20128;-85
2022/06/29 11:45:47;;;;;;;7.07;3.23;;;25.70;83.20;;;;;;5012796;28;20049;-85
2022/06/29 11:48:23;;;;;;;6.90;3.30;;;25.80;81.60;;;;;;4997307;28;20100;-85
2022/06/29 11:50:53;;;;;;;8.73;3.22;;;25.80;80.80;;;;;;5012697;28;20380;-85
2022/06/29 11:53:45;;;;;;;8.00;3.45;;;25.80;85.30;;;;;;5011770;28;20073;-86
2022/06/29 11:56:13;;;;;;;8.23;3.20;;;25.90;90.50;;;;;;4996056;28;20042;-85
2022/06/29 11:58:42;;;;;;;6.95;3.15;;;25.90;90.10;;;;;;5012371;28;20053;-85
2022/06/29 12:01:16;;;;;;;6.53;3.10;;;26.00;90.70;;;;;;5013185;28;20060;-85
2022/06/29 12:03:57;;;;;;;8.13;3.22;;;26.00;88.60;;;;;;4996845;28;20116;-86
2022/06/29 12:06:24;;;;;;;7.80;3.60;;;26.10;89.30;;;;;;4996025;28;20029;-86
2022/06/29 12:08:52;;;;;;;7.13;3.22;;;26.10;83.30;;;;;;4996037;28;20044;-85
2022/06/29 12:11:17;;;;;;;8.65;3.72;;;26.10;84.90;;;;;;5012460;28;20518;-85
2022/06/29 12:13:43;;;;;;;8.05;3.30;;;26.10;81.40;;;;;;5031368;28;20047;-85
2022/06/29 12:16:10;;;;;;;11.55;4.07;;;26.30;83.60;;;;;;5012173;28;20044;-86
2022/06/29 12:18:35;;;;;;;7.40;3.35;;;26.40;83.00;;;;;;5012780;28;20052;-85
2022/06/29 12:21:01;;;;;;;8.18;3.40;;;26.40;78.30;;;;;;5013579;28;20041;-85
2022/06/29 12:23:28;;;;;;;8.63;3.17;;;26.50;77.10;;;;;;5013117;28;20049;-85
2022/06/29 12:25:54;;;;;;;8.13;3.40;;;26.60;78.90;;;;;;5012386;28;20053;-85
2022/06/29 12:28:20;;;;;;;7.22;3.53;;;26.90;79.00;;;;;;5012757;28;20030;-86
2022/06/29 12:30:46;;;;;;;6.25;3.03;;;27.00;74.30;;;;;;4996255;28;20091;-86
2022/06/29 12:33:11;;;;;;;7.35;3.30;;;27.00;74.10;;;;;;5013256;28;20489;-86
2022/06/29 12:35:37;;;;;;;7.45;3.20;;;26.90;71.60;;;;;;5012426;28;20439;-86
2022/06/29 12:38:03;;;;;;;7.30;3.20;;;26.80;71.20;;;;;;5012629;28;20049;-86
2022/06/29 12:40:29;;;;;;;8.73;3.10;;;26.80;73.20;;;;;;5012169;28;20416;-85
2022/06/29 12:42:55;;;;;;;8.00;3.25;;;26.90;77.60;;;;;;5013284;28;20077;-85
2022/06/29 12:45:21;;;;;;;7.95;3.20;;;27.10;77.40;;;;;;5013524;28;20069;-86
2022/06/29 12:47:46;;;;;;;6.70;3.13;;;27.20;70.40;;;;;;5011739;28;20521;-85
2022/06/29 12:50:12;;;;;;;7.88;3.03;;;27.40;75.90;;;;;;5028902;28;20037;-85
2022/06/29 12:52:42;;;;;;;7.03;3.28;;;27.50;76.20;;;;;;5012580;28;20045;-85
2022/06/29 12:55:10;;;;;;;13.73;3.42;;;27.60;72.90;;;;;;5011515;28;20047;-85
2022/06/29 12:57:36;;;;;;;9.32;3.38;;;27.60;68.10;;;;;;5047290;28;20566;-85
2022/06/29 13:00:03;;;;;;;7.63;3.17;;;27.80;64.20;;;;;;5013633;28;20112;-85
2022/06/29 13:02:30;;;;;;;6.60;3.08;;;27.70;65.20;;;;;;5030442;28;20037;-85
2022/06/29 13:04:55;;;;;;;9.50;3.53;;;27.70;65.20;;;;;;5011757;28;20103;-85